Time;durP1;ratioP1;P1;durP2;ratioP2;P2;SDS_P1;SDS_P2;PMS_P1;PMS_P2;Temp;Humidity;BMP_temperature;BMP_pressure;BME280_temperature;BME280_humidity;BME280_pressure;Samples;Min_cycle;Max_cycle;Signal;HPM_P1;HPM_P2
2023/08/17 00:00:09;;;;;;;11.65;10.23;;;;;;;;;;5009607;28;20092;-76
2023/08/17 00:02:35;;;;;;;12.88;10.02;;;;;;;;;;4997116;28;20671;-77
2023/08/17 00:05:01;;;;;;;16.02;9.60;;;;;;;;;;5009944;28;20108;-77
2023/08/17 00:07:26;;;;;;;11.15;10.05;;;;;;;;;;5007215;28;20045;-76
2023/08/17 00:09:52;;;;;;;15.50;11.30;;;;;;;;;;5004964;28;20127;-76
2023/08/17 00:12:18;;;;;;;14.00;10.60;;;;;;;;;;5008641;28;20037;-76
2023/08/17 00:14:44;;;;;;;13.18;10.90;;;;;;;;;;5010747;28;20979;-76
2023/08/17 00:17:09;;;;;;;18.92;10.48;;;;;;;;;;5010615;28;20029;-76
2023/08/17 00:19:35;;;;;;;13.27;10.20;;;;;;;;;;4994537;28;20070;-77
2023/08/17 00:22:00;;;;;;;27.38;11.52;;;;;;;;;;4997820;28;20079;-77
2023/08/17 00:24:26;;;;;;;13.68;10.32;;;;;;;;;;5011333;28;20033;-77
2023/08/17 00:26:51;;;;;;;11.88;10.00;;;;;;;;;;5010372;28;20467;-77
2023/08/17 00:29:17;;;;;;;12.52;9.48;;;;;;;;;;5005408;28;20069;-77
2023/08/17 00:31:42;;;;;;;13.07;10.55;;;;;;;;;;5007049;28;20030;-77
2023/08/17 00:34:08;;;;;;;18.17;13.23;;;;;;;;;;5011880;28;20026;-77
2023/08/17 00:36:34;;;;;;;13.57;10.88;;;;;;;;;;5010165;28;20028;-77
2023/08/17 00:39:00;;;;;;;13.95;10.07;;;;;;;;;;5026833;28;20022;-77
2023/08/17 00:41:26;;;;;;;14.00;9.63;;;;;;;;;;5003916;28;20026;-76
2023/08/17 00:43:51;;;;;;;12.95;10.32;;;;;;;;;;4991168;28;20355;-77
2023/08/17 00:46:20;;;;;;;18.15;10.73;;;;;;;;;;5006623;28;20033;-78
2023/08/17 00:48:45;;;;;;;11.73;9.85;;;;;;;;;;5019568;28;20053;-76
2023/08/17 00:51:11;;;;;;;17.30;11.00;;;;;;;;;;5002730;28;20490;-76
2023/08/17 00:53:37;;;;;;;12.35;11.00;;;;;;;;;;5004383;28;20060;-77
2023/08/17 00:56:03;;;;;;;15.15;10.30;;;;;;;;;;5010178;28;20458;-76
2023/08/17 00:58:28;;;;;;;14.27;11.65;;;;;;;;;;4997152;28;20047;-76
2023/08/17 01:00:54;;;;;;;14.35;10.50;;;;;;;;;;4990890;28;20423;-76
2023/08/17 01:03:21;;;;;;;12.85;10.63;;;;;;;;;;4990212;28;20340;-76
2023/08/17 01:05:47;;;;;;;13.40;11.13;;;;;;;;;;4998515;28;20018;-77
2023/08/17 01:08:12;;;;;;;15.30;10.88;;;;;;;;;;5011155;28;20036;-77
2023/08/17 01:10:52;;;;;;;14.05;11.55;;;;;;;;;;5012504;28;20045;-77
2023/08/17 01:13:47;;;;;;;17.90;11.52;;;;;;;;;;4992305;28;20030;-77
2023/08/17 01:16:15;;;;;;;19.88;10.93;;;;;;;;;;5009125;28;20040;-77
2023/08/17 01:18:43;;;;;;;16.35;10.25;;;;;;;;;;5024961;28;20040;-77
2023/08/17 01:21:11;;;;;;;12.63;10.48;;;;;;;;;;5023613;28;20116;-77
2023/08/17 01:23:37;;;;;;;16.48;11.25;;;;;;;;;;5010851;28;20022;-77
2023/08/17 01:26:03;;;;;;;13.80;10.23;;;;;;;;;;5026715;28;20343;-77
2023/08/17 01:28:29;;;;;;;13.77;10.82;;;;;;;;;;5013485;28;20053;-77
2023/08/17 01:31:00;;;;;;;22.90;11.60;;;;;;;;;;5001537;28;20045;-77
2023/08/17 01:33:31;;;;;;;;;;;;;;;;;;4991630;28;20029;-77
2023/08/17 01:36:03;;;;;;;14.05;11.07;;;;;;;;;;4992675;28;20020;-77
2023/08/17 01:38:29;;;;;;;13.95;10.85;;;;;;;;;;5003069;28;20386;-77
2023/08/17 01:40:56;;;;;;;20.58;11.02;;;;;;;;;;4979654;28;20030;-77
2023/08/17 01:43:22;;;;;;;13.55;10.63;;;;;;;;;;5001389;28;20027;-77
2023/08/17 01:45:47;;;;;;;11.48;10.30;;;;;;;;;;4975585;28;20018;-77
2023/08/17 01:48:13;;;;;;;12.95;9.90;;;;;;;;;;5003563;28;20032;-77
2023/08/17 01:50:38;;;;;;;15.40;11.05;;;;;;;;;;4997185;28;20026;-77
2023/08/17 01:53:04;;;;;;;14.43;10.98;;;;;;;;;;5010135;28;20033;-77
2023/08/17 01:55:30;;;;;;;15.00;11.18;;;;;;;;;;5017018;28;20355;-76
2023/08/17 01:57:55;;;;;;;15.48;10.55;;;;;;;;;;5011814;28;20409;-77
2023/08/17 02:00:21;;;;;;;14.07;10.43;;;;;;;;;;5010365;28;20045;-77
2023/08/17 02:02:46;;;;;;;11.98;9.90;;;;;;;;;;5005843;28;20084;-78
2023/08/17 02:05:11;;;;;;;14.02;10.45;;;;;;;;;;4980167;28;20101;-77
2023/08/17 02:07:37;;;;;;;17.90;10.85;;;;;;;;;;5009831;28;20018;-73
2023/08/17 02:10:03;;;;;;;16.90;10.60;;;;;;;;;;5011520;28;20036;-73
2023/08/17 02:12:28;;;;;;;13.23;10.32;;;;;;;;;;4997176;28;20487;-73
2023/08/17 02:14:54;;;;;;;15.63;12.13;;;;;;;;;;4977417;28;20482;-72
2023/08/17 02:17:21;;;;;;;17.90;12.20;;;;;;;;;;4989670;28;20438;-73
2023/08/17 02:19:47;;;;;;;15.55;10.43;;;;;;;;;;4989019;28;20034;-73
2023/08/17 02:22:13;;;;;;;15.45;9.93;;;;;;;;;;4993610;28;20032;-73
2023/08/17 02:24:39;;;;;;;15.23;10.73;;;;;;;;;;4998276;28;20109;-73
2023/08/17 02:27:04;;;;;;;13.02;10.55;;;;;;;;;;4991059;28;20022;-73
2023/08/17 02:29:30;;;;;;;15.35;10.93;;;;;;;;;;5007327;28;20051;-72
2023/08/17 02:31:55;;;;;;;12.43;10.60;;;;;;;;;;5017767;28;20041;-73
2023/08/17 02:34:21;;;;;;;11.55;10.30;;;;;;;;;;5010859;28;20506;-79
2023/08/17 02:36:46;;;;;;;12.43;10.25;;;;;;;;;;5005033;28;20165;-78
2023/08/17 02:39:12;;;;;;;13.73;9.80;;;;;;;;;;5008997;28;20542;-79
2023/08/17 02:41:37;;;;;;;14.63;10.93;;;;;;;;;;5018710;28;20121;-79
2023/08/17 02:44:03;;;;;;;12.48;10.50;;;;;;;;;;5018758;28;20371;-79
2023/08/17 02:46:28;;;;;;;12.38;9.85;;;;;;;;;;5010489;28;20029;-79
2023/08/17 02:48:54;;;;;;;15.90;13.25;;;;;;;;;;4999466;28;20045;-80
2023/08/17 02:51:20;;;;;;;13.65;10.18;;;;;;;;;;5021646;28;20021;-78
2023/08/17 02:53:45;;;;;;;13.82;10.40;;;;;;;;;;5013280;28;20018;-79
2023/08/17 02:56:13;;;;;;;17.05;10.07;;;;;;;;;;5008986;28;20035;-79
2023/08/17 02:58:42;;;;;;;13.20;10.27;;;;;;;;;;5008689;28;20029;-81
2023/08/17 03:01:08;;;;;;;12.90;10.13;;;;;;;;;;5026483;28;20045;-79
2023/08/17 03:03:34;;;;;;;15.38;10.52;;;;;;;;;;5022445;28;20033;-75
2023/08/17 03:06:00;;;;;;;15.77;11.02;;;;;;;;;;4994127;28;20036;-78
2023/08/17 03:08:26;;;;;;;13.73;10.95;;;;;;;;;;5008375;28;20021;-78
2023/08/17 03:10:51;;;;;;;13.20;11.27;;;;;;;;;;5029473;28;20079;-78
2023/08/17 03:13:17;;;;;;;24.45;22.33;;;;;;;;;;5021601;28;20052;-78
2023/08/17 03:15:42;;;;;;;11.02;9.18;;;;;;;;;;5028860;28;20036;-79
2023/08/17 03:18:08;;;;;;;18.52;10.77;;;;;;;;;;5029198;28;20033;-78
2023/08/17 03:20:34;;;;;;;16.10;10.43;;;;;;;;;;5009165;28;20032;-77
2023/08/17 03:22:59;;;;;;;12.23;10.30;;;;;;;;;;5010760;28;20061;-80
2023/08/17 03:25:25;;;;;;;12.57;9.98;;;;;;;;;;5033440;28;20025;-81
2023/08/17 03:27:50;;;;;;;16.08;9.35;;;;;;;;;;5014841;28;20052;-80
2023/08/17 03:30:16;;;;;;;20.20;11.00;;;;;;;;;;5013428;28;20695;-79
2023/08/17 03:32:41;;;;;;;19.83;10.45;;;;;;;;;;5006019;28;20038;-80
2023/08/17 03:35:07;;;;;;;15.05;11.00;;;;;;;;;;5045516;28;20547;-80
2023/08/17 03:37:33;;;;;;;16.33;14.90;;;;;;;;;;5028274;28;20053;-77
2023/08/17 03:40:00;;;;;;;11.93;10.27;;;;;;;;;;5020964;28;20694;-77
2023/08/17 03:42:26;;;;;;;15.20;10.77;;;;;;;;;;5018669;28;20029;-77
2023/08/17 03:44:52;;;;;;;14.10;10.10;;;;;;;;;;5029909;28;20029;-78
2023/08/17 03:47:19;;;;;;;14.55;10.93;;;;;;;;;;5025129;28;20053;-76
2023/08/17 03:49:44;;;;;;;13.77;10.27;;;;;;;;;;5013035;28;20034;-77
2023/08/17 03:52:10;;;;;;;17.20;10.25;;;;;;;;;;5028222;28;20041;-77
2023/08/17 03:54:36;;;;;;;14.60;10.57;;;;;;;;;;5028163;28;20034;-78
2023/08/17 03:57:02;;;;;;;14.98;10.75;;;;;;;;;;5031848;28;20486;-77
2023/08/17 03:59:28;;;;;;;17.90;16.05;;;;;;;;;;5029644;28;20088;-78
2023/08/17 04:01:53;;;;;;;20.27;11.52;;;;;;;;;;5008108;28;20117;-78
2023/08/17 04:04:19;;;;;;;18.40;10.32;;;;;;;;;;5013513;28;20026;-78
2023/08/17 04:06:44;;;;;;;23.83;13.45;;;;;;;;;;5023893;28;20032;-78
2023/08/17 04:09:10;;;;;;;14.43;10.63;;;;;;;;;;5010182;28;20036;-78
2023/08/17 04:11:36;;;;;;;17.92;10.55;;;;;;;;;;5011306;28;20039;-78
2023/08/17 04:14:02;;;;;;;20.10;11.45;;;;;;;;;;5009626;28;20030;-78
2023/08/17 04:16:28;;;;;;;16.55;11.85;;;;;;;;;;5012601;28;20026;-77
2023/08/17 04:18:54;;;;;;;13.85;11.05;;;;;;;;;;5010770;28;20095;-78
2023/08/17 04:21:20;;;;;;;16.88;11.73;;;;;;;;;;5013158;28;20018;-78
2023/08/17 04:23:45;;;;;;;17.13;11.10;;;;;;;;;;5016646;28;20327;-77
2023/08/17 04:26:11;;;;;;;17.55;11.52;;;;;;;;;;4996782;28;20033;-78
2023/08/17 04:28:37;;;;;;;16.40;11.50;;;;;;;;;;5014475;28;20072;-76
2023/08/17 04:31:02;;;;;;;16.27;11.60;;;;;;;;;;5013887;28;20029;-78
2023/08/17 04:33:28;;;;;;;13.80;11.23;;;;;;;;;;4997722;28;20040;-78
2023/08/17 04:35:53;;;;;;;12.20;10.82;;;;;;;;;;5013246;28;20063;-77
2023/08/17 04:38:19;;;;;;;18.00;12.02;;;;;;;;;;4994234;28;20037;-78
2023/08/17 04:40:44;;;;;;;15.10;11.32;;;;;;;;;;5021882;28;20478;-78
2023/08/17 04:43:10;;;;;;;17.77;12.23;;;;;;;;;;5024983;28;20087;-78
2023/08/17 04:45:36;;;;;;;18.58;12.43;;;;;;;;;;5018326;28;20026;-78
2023/08/17 04:48:01;;;;;;;23.10;13.48;;;;;;;;;;5022582;28;20100;-78
2023/08/17 04:50:27;;;;;;;13.88;11.13;;;;;;;;;;5019972;28;20021;-78
2023/08/17 04:52:52;;;;;;;17.55;11.00;;;;;;;;;;5008712;28;20038;-78
2023/08/17 04:55:18;;;;;;;14.65;11.35;;;;;;;;;;5017394;28;20026;-76
2023/08/17 04:57:43;;;;;;;15.45;11.20;;;;;;;;;;5012368;28;20104;-76
2023/08/17 05:00:11;;;;;;;17.25;11.98;;;;;;;;;;5029555;28;20067;-75
2023/08/17 05:02:37;;;;;;;15.13;13.07;;;;;;;;;;5031472;28;20034;-76
2023/08/17 05:05:07;;;;;;;15.75;12.40;;;;;;;;;;5046776;28;20092;-77
2023/08/17 05:07:33;;;;;;;16.30;14.05;;;;;;;;;;5030410;28;20098;-77
2023/08/17 05:09:58;;;;;;;16.60;12.48;;;;;;;;;;5028871;28;20489;-76
2023/08/17 05:12:24;;;;;;;18.00;15.48;;;;;;;;;;5031468;28;20113;-76
2023/08/17 05:14:49;;;;;;;18.30;12.35;;;;;;;;;;5032290;28;20052;-75
2023/08/17 05:17:15;;;;;;;37.45;15.10;;;;;;;;;;5048089;28;20052;-76
2023/08/17 05:19:41;;;;;;;20.45;13.82;;;;;;;;;;5029690;28;20037;-75
2023/08/17 05:22:12;;;;;;;25.95;14.38;;;;;;;;;;5031388;28;20021;-76
2023/08/17 05:24:38;;;;;;;25.17;17.77;;;;;;;;;;5030775;28;20068;-76
2023/08/17 05:27:04;;;;;;;22.73;14.40;;;;;;;;;;5031789;28;20029;-76
2023/08/17 05:29:33;;;;;;;21.25;14.50;;;;;;;;;;5026470;28;20053;-76
2023/08/17 05:31:59;;;;;;;23.23;13.77;;;;;;;;;;5045831;28;20026;-76
2023/08/17 05:34:25;;;;;;;17.88;13.07;;;;;;;;;;5030372;28;20046;-77
2023/08/17 05:36:50;;;;;;;29.10;15.63;;;;;;;;;;5013281;28;20502;-76
2023/08/17 05:39:16;;;;;;;19.80;14.75;;;;;;;;;;5031510;28;20127;-75
2023/08/17 05:41:42;;;;;;;20.30;15.10;;;;;;;;;;5030380;28;20032;-74
2023/08/17 05:44:07;;;;;;;20.73;14.00;;;;;;;;;;5030846;28;20032;-74
2023/08/17 05:46:34;;;;;;;21.02;14.32;;;;;;;;;;5014217;28;20029;-74
2023/08/17 05:49:01;;;;;;;26.80;14.88;;;;;;;;;;5029804;28;20044;-76
2023/08/17 05:51:27;;;;;;;16.33;14.63;;;;;;;;;;5016428;28;20124;-77
2023/08/17 05:53:52;;;;;;;18.92;13.00;;;;;;;;;;5020779;28;20097;-76
2023/08/17 05:56:18;;;;;;;20.80;16.25;;;;;;;;;;4995151;28;20026;-74
2023/08/17 05:58:43;;;;;;;15.00;13.18;;;;;;;;;;4993994;28;20032;-76
2023/08/17 06:01:11;;;;;;;15.48;12.35;;;;;;;;;;5008930;28;20060;-75
2023/08/17 06:03:37;;;;;;;17.77;13.43;;;;;;;;;;5032346;28;20159;-73
2023/08/17 06:06:06;;;;;;;18.30;13.82;;;;;;;;;;5033534;28;20057;-73
2023/08/17 06:08:32;;;;;;;17.63;13.98;;;;;;;;;;5013675;28;20441;-73
2023/08/17 06:10:58;;;;;;;18.63;14.55;;;;;;;;;;5038417;28;20063;-77
2023/08/17 06:13:23;;;;;;;19.33;14.13;;;;;;;;;;5043162;28;20093;-78
2023/08/17 06:15:49;;;;;;;21.48;15.48;;;;;;;;;;5011979;28;20125;-75
2023/08/17 06:18:16;;;;;;;19.52;14.55;;;;;;;;;;5013833;28;20140;-75
2023/08/17 06:20:42;;;;;;;22.23;15.25;;;;;;;;;;5010592;28;20029;-74
2023/08/17 06:23:08;;;;;;;18.95;14.68;;;;;;;;;;5029163;28;20072;-74
2023/08/17 06:25:34;;;;;;;19.63;14.90;;;;;;;;;;5021106;28;20490;-74
2023/08/17 06:28:01;;;;;;;25.05;15.80;;;;;;;;;;5021462;28;20494;-76
2023/08/17 06:30:27;;;;;;;20.88;14.85;;;;;;;;;;5014676;28;20059;-74
2023/08/17 06:32:53;;;;;;;18.67;16.08;;;;;;;;;;5035627;28;20493;-75
2023/08/17 06:35:19;;;;;;;21.88;15.48;;;;;;;;;;5037685;28;20042;-74
2023/08/17 06:37:48;;;;;;;23.48;16.17;;;;;;;;;;5024338;28;20041;-75
2023/08/17 06:40:14;;;;;;;20.73;14.88;;;;;;;;;;5025060;28;20026;-76
2023/08/17 06:42:40;;;;;;;39.20;15.85;;;;;;;;;;5008609;28;20033;-75
2023/08/17 06:45:06;;;;;;;23.13;14.43;;;;;;;;;;5025165;28;20087;-73
2023/08/17 06:47:32;;;;;;;22.27;16.85;;;;;;;;;;5004526;28;20036;-75
2023/08/17 06:50:00;;;;;;;21.20;14.60;;;;;;;;;;5008117;28;20037;-76
2023/08/17 06:52:26;;;;;;;20.60;14.48;;;;;;;;;;5005745;28;20058;-77
2023/08/17 06:54:51;;;;;;;21.50;19.33;;;;;;;;;;5021307;28;20456;-77
2023/08/17 06:57:18;;;;;;;24.33;16.70;;;;;;;;;;5027882;28;20119;-74
2023/08/17 06:59:45;;;;;;;18.35;14.25;;;;;;;;;;5025414;28;20434;-76
2023/08/17 07:02:11;;;;;;;24.52;17.08;;;;;;;;;;5019954;28;20104;-76
2023/08/17 07:04:41;;;;;;;22.13;14.38;;;;;;;;;;5027826;28;20453;-77
2023/08/17 07:07:08;;;;;;;20.25;14.43;;;;;;;;;;5029218;28;20160;-79
2023/08/17 07:09:38;;;;;;;21.88;19.85;;;;;;;;;;5023576;28;20124;-76
2023/08/17 07:12:04;;;;;;;19.02;14.25;;;;;;;;;;5031707;28;20122;-75
2023/08/17 07:14:31;;;;;;;19.30;12.30;;;;;;;;;;5007878;23;20038;-75
2023/08/17 07:16:57;;;;;;;14.38;12.38;;;;;;;;;;4997031;28;20057;-75
2023/08/17 07:19:23;;;;;;;14.35;11.13;;;;;;;;;;5009186;28;20037;-75
2023/08/17 07:21:53;;;;;;;19.35;11.63;;;;;;;;;;5010112;28;20542;-78
2023/08/17 07:24:20;;;;;;;14.90;11.50;;;;;;;;;;5014038;28;20022;-77
2023/08/17 07:26:47;;;;;;;16.10;12.52;;;;;;;;;;4978573;28;20073;-79
2023/08/17 07:29:14;;;;;;;16.50;13.18;;;;;;;;;;4994848;28;20552;-77
2023/08/17 07:31:40;;;;;;;18.63;12.23;;;;;;;;;;4992328;28;20037;-78
2023/08/17 07:34:06;;;;;;;15.68;12.07;;;;;;;;;;5011708;28;20036;-76
2023/08/17 07:36:35;;;;;;;17.30;12.88;;;;;;;;;;4988000;28;20037;-78
2023/08/17 07:39:01;;;;;;;14.10;11.88;;;;;;;;;;4994526;28;20026;-77
2023/08/17 07:41:27;;;;;;;16.88;12.85;;;;;;;;;;5005295;28;20501;-77
2023/08/17 07:43:52;;;;;;;14.20;12.70;;;;;;;;;;5007313;28;20049;-78
2023/08/17 07:46:18;;;;;;;17.95;11.35;;;;;;;;;;4997706;28;20025;-77
2023/08/17 07:48:47;;;;;;;15.27;11.18;;;;;;;;;;5015661;28;20030;-78
2023/08/17 07:51:12;;;;;;;15.98;12.25;;;;;;;;;;4995402;28;20590;-77
2023/08/17 07:53:39;;;;;;;14.38;11.38;;;;;;;;;;5000264;28;20030;-77
2023/08/17 07:56:04;;;;;;;17.85;12.40;;;;;;;;;;5017909;28;20029;-75
2023/08/17 07:58:33;;;;;;;18.02;11.48;;;;;;;;;;4991877;28;20029;-78
2023/08/17 08:00:59;;;;;;;11.93;10.65;;;;;;;;;;5007159;28;20592;-75
2023/08/17 08:03:25;;;;;;;16.52;11.77;;;;;;;;;;4995237;28;20033;-76
2023/08/17 08:05:50;;;;;;;12.10;10.82;;;;;;;;;;4989791;28;20529;-77
2023/08/17 08:08:19;;;;;;;12.52;11.18;;;;;;;;;;5011730;28;20026;-78
2023/08/17 08:10:46;;;;;;;13.88;11.50;;;;;;;;;;5005293;28;20036;-77
2023/08/17 08:13:14;;;;;;;12.80;10.82;;;;;;;;;;5016547;28;20739;-78
2023/08/17 08:16:09;;;;;;;13.02;11.00;;;;;;;;;;5015400;28;20049;-77
2023/08/17 08:18:36;;;;;;;16.77;10.45;;;;;;;;;;5014987;28;20046;-77
2023/08/17 08:21:02;;;;;;;15.70;9.98;;;;;;;;;;5014168;28;20498;-77
2023/08/17 08:23:29;;;;;;;14.82;10.75;;;;;;;;;;5015460;28;20066;-75
2023/08/17 08:26:01;;;;;;;14.93;11.13;;;;;;;;;;5003722;28;20030;-78
2023/08/17 08:28:27;;;;;;;23.77;10.68;;;;;;;;;;4991690;28;20032;-78
2023/08/17 08:31:11;;;;;;;10.98;9.68;;;;;;;;;;5006791;28;20107;-77
2023/08/17 08:33:41;;;;;;;11.88;10.38;;;;;;;;;;5009439;28;20033;-77
2023/08/17 08:36:09;;;;;;;11.13;10.05;;;;;;;;;;5009780;28;20026;-76
2023/08/17 08:38:35;;;;;;;11.18;9.57;;;;;;;;;;4996327;28;20029;-75
2023/08/17 08:41:02;;;;;;;11.93;10.25;;;;;;;;;;4993370;28;20725;-78
2023/08/17 08:43:29;;;;;;;15.18;10.73;;;;;;;;;;5001353;28;20037;-77
2023/08/17 08:46:01;;;;;;;12.32;10.50;;;;;;;;;;5006764;28;20097;-77
2023/08/17 08:48:32;;;;;;;15.77;11.32;;;;;;;;;;5013290;28;20556;-76
2023/08/17 08:51:04;;;;;;;14.05;10.68;;;;;;;;;;4990418;28;20451;-75
2023/08/17 08:53:44;;;;;;;26.08;11.93;;;;;;;;;;4994650;28;20648;-79
2023/08/17 08:56:15;;;;;;;17.00;10.88;;;;;;;;;;4987597;28;20116;-75
2023/08/17 08:58:42;;;;;;;;;;;;;;;;;;5015737;28;20032;-76
2023/08/17 09:01:10;;;;;;;13.80;9.20;;;;;;;;;;4989543;28;19964;-78
2023/08/17 09:03:37;;;;;;;11.65;9.77;;;;;;;;;;4992659;28;20053;-78
2023/08/17 09:06:04;;;;;;;37.58;34.75;;;;;;;;;;5010908;28;20068;-77
2023/08/17 09:08:30;;;;;;;14.98;11.15;;;;;;;;;;5005327;28;20452;-76
2023/08/17 09:10:59;;;;;;;12.82;11.02;;;;;;;;;;5003764;28;20034;-74
2023/08/17 09:13:29;;;;;;;15.52;12.75;;;;;;;;;;4987660;28;20037;-75
2023/08/17 09:15:58;;;;;;;16.85;10.60;;;;;;;;;;4987676;28;20030;-75
2023/08/17 09:18:26;;;;;;;19.10;10.63;;;;;;;;;;5008167;28;20057;-74
2023/08/17 09:20:52;;;;;;;15.40;10.57;;;;;;;;;;5005062;28;20026;-75
2023/08/17 09:23:21;;;;;;;18.42;11.80;;;;;;;;;;4988469;28;20368;-74
2023/08/17 09:25:51;;;;;;;13.73;10.25;;;;;;;;;;5009539;28;20034;-76
2023/08/17 09:28:20;;;;;;;11.88;10.38;;;;;;;;;;4990323;28;20042;-76
2023/08/17 09:31:05;;;;;;;17.17;10.50;;;;;;;;;;4974266;28;20130;-75
2023/08/17 09:33:36;;;;;;;13.45;12.05;;;;;;;;;;4994854;28;20056;-77
2023/08/17 09:36:04;;;;;;;11.65;10.55;;;;;;;;;;4989873;28;20156;-76
2023/08/17 09:38:32;;;;;;;14.30;10.77;;;;;;;;;;5007081;28;20044;-74
2023/08/17 09:40:59;;;;;;;12.23;10.88;;;;;;;;;;4987882;28;20057;-73
2023/08/17 09:43:28;;;;;;;13.50;9.38;;;;;;;;;;5006362;28;20088;-76
2023/08/17 09:45:59;;;;;;;21.33;19.63;;;;;;;;;;4984303;28;20526;-75
2023/08/17 09:48:27;;;;;;;60.28;56.83;;;;;;;;;;5008031;28;20125;-76
2023/08/17 09:50:58;;;;;;;34.70;32.47;;;;;;;;;;4999908;28;20434;-75
2023/08/17 09:53:25;;;;;;;16.50;15.00;;;;;;;;;;5005871;28;20038;-75
2023/08/17 09:55:55;;;;;;;12.35;11.13;;;;;;;;;;4986921;28;20034;-73
2023/08/17 09:58:22;;;;;;;19.25;12.63;;;;;;;;;;5002461;28;20519;-78
2023/08/17 10:00:51;;;;;;;14.73;12.23;;;;;;;;;;5003529;28;20824;-79
2023/08/17 10:03:19;;;;;;;17.55;13.02;;;;;;;;;;4990802;28;20037;-76
2023/08/17 10:06:09;;;;;;;19.08;12.63;;;;;;;;;;5008708;28;20121;-76
2023/08/17 10:08:43;;;;;;;13.18;11.77;;;;;;;;;;5006203;28;20030;-76
2023/08/17 10:11:12;;;;;;;12.18;10.25;;;;;;;;;;4991364;28;20089;-76
2023/08/17 10:14:06;;;;;;;14.50;11.77;;;;;;;;;;4990027;28;20034;-76
2023/08/17 10:16:59;;;;;;;12.00;10.65;;;;;;;;;;4984131;28;20037;-76
2023/08/17 10:19:34;;;;;;;16.38;12.15;;;;;;;;;;5000634;28;20092;-75
2023/08/17 10:22:11;;;;;;;24.02;20.60;;;;;;;;;;4986910;28;20084;-78
2023/08/17 10:24:42;;;;;;;12.25;11.05;;;;;;;;;;4994874;28;20025;-78
2023/08/17 10:27:13;;;;;;;14.75;10.70;;;;;;;;;;4987388;28;20038;-74
2023/08/17 10:29:40;;;;;;;14.57;10.82;;;;;;;;;;5018345;28;20040;-74
2023/08/17 10:32:07;;;;;;;17.48;11.65;;;;;;;;;;4984596;28;20030;-76
2023/08/17 10:34:35;;;;;;;20.42;14.30;;;;;;;;;;4994913;28;20593;-75
2023/08/17 10:37:03;;;;;;;12.27;10.90;;;;;;;;;;4993786;28;20036;-74
2023/08/17 10:39:30;;;;;;;14.23;12.50;;;;;;;;;;4992373;28;20038;-77
2023/08/17 10:41:59;;;;;;;14.43;11.60;;;;;;;;;;4991159;28;20113;-77
2023/08/17 10:44:54;;;;;;;11.82;10.63;;;;;;;;;;4971999;28;20045;-78
2023/08/17 10:47:24;;;;;;;11.20;10.23;;;;;;;;;;4955608;28;20035;-73
2023/08/17 10:49:53;;;;;;;16.38;10.40;;;;;;;;;;4970322;28;20045;-74
2023/08/17 10:52:33;;;;;;;11.98;9.85;;;;;;;;;;4966364;28;20035;-74
2023/08/17 10:55:05;;;;;;;14.43;10.20;;;;;;;;;;4962748;28;20112;-77
2023/08/17 10:57:42;;;;;;;17.42;9.45;;;;;;;;;;4984273;28;20022;-74
2023/08/17 11:00:32;;;;;;;13.88;8.98;;;;;;;;;;4968773;28;20047;-75
2023/08/17 11:03:00;;;;;;;10.65;8.85;;;;;;;;;;4986259;28;20047;-75
2023/08/17 11:05:37;;;;;;;9.52;7.68;;;;;;;;;;4970636;28;20027;-75
2023/08/17 11:08:09;;;;;;;8.75;7.95;;;;;;;;;;4970840;28;20077;-76
2023/08/17 11:10:38;;;;;;;11.20;9.18;;;;;;;;;;4995496;28;20557;-77
2023/08/17 11:13:11;;;;;;;13.55;8.55;;;;;;;;;;4978935;28;20071;-76
2023/08/17 11:15:38;;;;;;;11.93;7.72;;;;;;;;;;4973177;28;20082;-77
2023/08/17 11:18:09;;;;;;;12.77;9.52;;;;;;;;;;4989213;28;20035;-75
2023/08/17 11:20:37;;;;;;;8.25;7.45;;;;;;;;;;4955813;28;20500;-75
2023/08/17 11:23:05;;;;;;;14.18;8.23;;;;;;;;;;5008998;28;20052;-76
2023/08/17 11:25:32;;;;;;;11.20;9.23;;;;;;;;;;4998318;28;20030;-75
2023/08/17 11:28:01;;;;;;;15.68;9.50;;;;;;;;;;5001544;28;20048;-73
2023/08/17 11:30:34;;;;;;;14.80;8.15;;;;;;;;;;4994276;28;20029;-77
2023/08/17 11:33:02;;;;;;;8.57;7.88;;;;;;;;;;5008576;28;20029;-75
2023/08/17 11:35:28;;;;;;;8.65;7.75;;;;;;;;;;5006969;28;20060;-78
2023/08/17 11:37:54;;;;;;;8.95;8.00;;;;;;;;;;5014581;28;20022;-75
2023/08/17 11:40:21;;;;;;;12.70;9.30;;;;;;;;;;4993135;28;20047;-76
2023/08/17 11:42:48;;;;;;;13.05;8.93;;;;;;;;;;4994192;28;20445;-77
2023/08/17 11:45:14;;;;;;;19.60;18.25;;;;;;;;;;4997729;28;20521;-74
2023/08/17 11:47:43;;;;;;;9.50;8.45;;;;;;;;;;4992946;28;20755;-75
2023/08/17 11:50:14;;;;;;;10.32;8.20;;;;;;;;;;5009405;28;20030;-76
2023/08/17 11:52:40;;;;;;;15.18;9.68;;;;;;;;;;5012901;28;20033;-76
2023/08/17 11:55:09;;;;;;;14.00;9.20;;;;;;;;;;4987464;28;20025;-76
2023/08/17 11:57:41;;;;;;;12.05;9.80;;;;;;;;;;5006396;28;20053;-76
2023/08/17 12:00:10;;;;;;;9.52;8.40;;;;;;;;;;4991911;28;20049;-75
2023/08/17 12:02:42;;;;;;;23.75;18.73;;;;;;;;;;4990788;28;20034;-76
2023/08/17 12:05:18;;;;;;;14.38;8.13;;;;;;;;;;5007585;28;20520;-75
2023/08/17 12:07:45;;;;;;;9.45;8.65;;;;;;;;;;5007700;28;20608;-75
2023/08/17 12:10:15;;;;;;;11.50;10.45;;;;;;;;;;4990116;28;20513;-75
2023/08/17 12:12:49;;;;;;;12.40;10.68;;;;;;;;;;5006703;28;20505;-75
2023/08/17 12:15:19;;;;;;;19.42;11.07;;;;;;;;;;4990010;28;20045;-77
2023/08/17 12:17:52;;;;;;;22.67;20.70;;;;;;;;;;4991095;28;20394;-76
2023/08/17 12:20:21;;;;;;;9.55;8.75;;;;;;;;;;5007242;28;20065;-76
2023/08/17 12:22:48;;;;;;;32.08;29.20;;;;;;;;;;5005207;28;20040;-76
2023/08/17 12:25:16;;;;;;;26.00;20.15;;;;;;;;;;5006961;28;20108;-77
2023/08/17 12:27:48;;;;;;;12.02;9.52;;;;;;;;;;5008108;28;20425;-76
2023/08/17 12:30:37;;;;;;;14.35;13.15;;;;;;;;;;4991352;28;20041;-76
2023/08/17 12:33:07;;;;;;;21.02;19.00;;;;;;;;;;5000963;28;20034;-75
2023/08/17 12:35:33;;;;;;;10.65;9.85;;;;;;;;;;4985998;28;20065;-76
2023/08/17 12:37:59;;;;;;;13.95;12.82;;;;;;;;;;4993989;28;20029;-75
2023/08/17 12:40:27;;;;;;;13.93;10.30;;;;;;;;;;5008475;28;20523;-76
2023/08/17 12:42:56;;;;;;;21.85;12.55;;;;;;;;;;4990019;28;20025;-76
2023/08/17 12:45:22;;;;;;;11.35;8.40;;;;;;;;;;5011089;28;20030;-77
2023/08/17 12:47:48;;;;;;;15.70;14.13;;;;;;;;;;5010256;28;20367;-75
2023/08/17 12:50:20;;;;;;;54.00;50.67;;;;;;;;;;5012446;28;20041;-76
2023/08/17 12:52:49;;;;;;;17.25;15.88;;;;;;;;;;4994848;28;20516;-76
2023/08/17 12:55:20;;;;;;;9.95;8.60;;;;;;;;;;5009859;28;20049;-76
2023/08/17 12:57:46;;;;;;;15.07;12.85;;;;;;;;;;5011698;28;20065;-76
2023/08/17 13:00:36;;;;;;;21.55;20.33;;;;;;;;;;5012449;28;20041;-72
2023/08/17 13:03:02;;;;;;;18.92;9.38;;;;;;;;;;4991704;28;20034;-76
2023/08/17 13:05:28;;;;;;;9.75;6.57;;;;;;;;;;4992370;28;20026;-76
2023/08/17 13:07:56;;;;;;;9.18;7.43;;;;;;;;;;5014478;28;20030;-76
2023/08/17 13:10:22;;;;;;;21.33;19.85;;;;;;;;;;4996082;28;20053;-77
2023/08/17 13:12:54;;;;;;;16.90;14.38;;;;;;;;;;4998992;28;20029;-74
2023/08/17 13:15:34;;;;;;;10.93;5.57;;;;;;;;;;5002836;28;20056;-77
2023/08/17 13:18:02;;;;;;;11.00;5.22;;;;;;;;;;4983650;28;20054;-75
2023/08/17 13:20:28;;;;;;;21.35;19.95;;;;;;;;;;4994227;28;20045;-76
2023/08/17 13:22:55;;;;;;;11.23;4.60;;;;;;;;;;5005666;28;20034;-77
2023/08/17 13:25:21;;;;;;;6.07;5.57;;;;;;;;;;5007805;28;20045;-75
2023/08/17 13:27:51;;;;;;;15.93;14.85;;;;;;;;;;4994660;28;20026;-77
2023/08/17 13:30:21;;;;;;;30.45;28.50;;;;;;;;;;4977087;28;20163;-79
2023/08/17 13:32:47;;;;;;;6.00;5.30;;;;;;;;;;5011478;28;20026;-79
2023/08/17 13:35:14;;;;;;;8.27;5.90;;;;;;;;;;4991808;28;20524;-76
2023/08/17 13:37:41;;;;;;;8.35;5.22;;;;;;;;;;5008702;28;20033;-77
2023/08/17 13:40:07;;;;;;;5.20;4.70;;;;;;;;;;5010220;28;20044;-75
2023/08/17 13:42:34;;;;;;;26.33;7.07;;;;;;;;;;5017968;28;20038;-79
2023/08/17 13:45:00;;;;;;;8.73;5.20;;;;;;;;;;5008762;28;20110;-76
2023/08/17 13:47:28;;;;;;;9.55;5.32;;;;;;;;;;5010432;28;20034;-76
2023/08/17 13:49:56;;;;;;;10.93;5.07;;;;;;;;;;4999084;28;20040;-76
2023/08/17 13:52:23;;;;;;;5.85;4.60;;;;;;;;;;5007079;28;20024;-77
2023/08/17 13:54:49;;;;;;;10.30;5.43;;;;;;;;;;4997059;28;20042;-76
2023/08/17 13:57:15;;;;;;;9.05;4.82;;;;;;;;;;4976846;28;20030;-76
2023/08/17 13:59:40;;;;;;;4.40;4.03;;;;;;;;;;4992524;28;20036;-78
2023/08/17 14:02:06;;;;;;;24.83;23.63;;;;;;;;;;4991465;28;20022;-77
2023/08/17 14:04:33;;;;;;;9.98;7.30;;;;;;;;;;4992985;28;20125;-76
2023/08/17 14:06:58;;;;;;;6.60;4.75;;;;;;;;;;4994650;28;20025;-78
2023/08/17 14:09:24;;;;;;;5.38;4.80;;;;;;;;;;5011533;28;20022;-77
2023/08/17 14:11:51;;;;;;;7.35;4.35;;;;;;;;;;4994372;28;20076;-75
2023/08/17 14:14:17;;;;;;;10.95;4.85;;;;;;;;;;5011912;28;20057;-78
2023/08/17 14:16:44;;;;;;;7.53;4.40;;;;;;;;;;4993330;28;20037;-76
2023/08/17 14:19:11;;;;;;;19.23;6.18;;;;;;;;;;4992364;28;20414;-76
2023/08/17 14:21:40;;;;;;;18.08;7.35;;;;;;;;;;4976076;28;20034;-77
2023/08/17 14:24:08;;;;;;;8.05;4.95;;;;;;;;;;4994356;28;20104;-79